sensor_id;sensor_type;location;lat;lon;timestamp;P1;durP1;ratioP1;P2;durP2;ratioP2
61391;SDS011;47261;52.892;5.738;2022-12-18T00:03:51;51.58;;;18.42;;
61391;SDS011;47261;52.892;5.738;2022-12-18T00:06:18;46.10;;;18.50;;
61391;SDS011;47261;52.892;5.738;2022-12-18T00:08:44;35.40;;;13.90;;
61391;SDS011;47261;52.892;5.738;2022-12-18T00:11:10;55.33;;;16.70;;
61391;SDS011;47261;52.892;5.738;2022-12-18T00:13:39;48.45;;;16.35;;
61391;SDS011;47261;52.892;5.738;2022-12-18T00:16:07;36.38;;;13.48;;
61391;SDS011;47261;52.892;5.738;2022-12-18T00:18:35;56.63;;;22.40;;
61391;SDS011;47261;52.892;5.738;2022-12-18T00:21:02;46.30;;;15.80;;
61391;SDS011;47261;52.892;5.738;2022-12-18T00:23:30;34.78;;;13.27;;
61391;SDS011;47261;52.892;5.738;2022-12-18T00:25:59;38.72;;;13.82;;
61391;SDS011;47261;52.892;5.738;2022-12-18T00:28:26;42.30;;;15.65;;
61391;SDS011;47261;52.892;5.738;2022-12-18T00:30:59;37.45;;;15.23;;
61391;SDS011;47261;52.892;5.738;2022-12-18T00:33:29;38.15;;;13.05;;
61391;SDS011;47261;52.892;5.738;2022-12-18T00:35:54;41.53;;;14.13;;
61391;SDS011;47261;52.892;5.738;2022-12-18T00:38:25;29.40;;;10.40;;
61391;SDS011;47261;52.892;5.738;2022-12-18T00:40:50;65.50;;;17.50;;
61391;SDS011;47261;52.892;5.738;2022-12-18T00:43:16;35.13;;;10.13;;
61391;SDS011;47261;52.892;5.738;2022-12-18T00:45:41;40.70;;;13.30;;
61391;SDS011;47261;52.892;5.738;2022-12-18T00:48:07;41.28;;;12.63;;
61391;SDS011;47261;52.892;5.738;2022-12-18T00:50:33;40.97;;;18.20;;
61391;SDS011;47261;52.892;5.738;2022-12-18T00:52:58;44.95;;;15.38;;
61391;SDS011;47261;52.892;5.738;2022-12-18T00:55:24;47.80;;;12.70;;
61391;SDS011;47261;52.892;5.738;2022-12-18T00:57:50;56.10;;;17.17;;
61391;SDS011;47261;52.892;5.738;2022-12-18T01:00:17;32.95;;;11.18;;
61391;SDS011;47261;52.892;5.738;2022-12-18T01:02:43;42.50;;;17.30;;
61391;SDS011;47261;52.892;5.738;2022-12-18T01:05:10;39.87;;;13.30;;
61391;SDS011;47261;52.892;5.738;2022-12-18T01:07:37;53.95;;;16.45;;
61391;SDS011;47261;52.892;5.738;2022-12-18T01:10:03;44.85;;;14.32;;
61391;SDS011;47261;52.892;5.738;2022-12-18T01:12:30;51.55;;;15.35;;
61391;SDS011;47261;52.892;5.738;2022-12-18T01:14:55;44.33;;;13.07;;
61391;SDS011;47261;52.892;5.738;2022-12-18T01:17:22;51.55;;;15.05;;
61391;SDS011;47261;52.892;5.738;2022-12-18T01:19:47;28.13;;;12.07;;
61391;SDS011;47261;52.892;5.738;2022-12-18T01:22:13;49.63;;;15.15;;
61391;SDS011;47261;52.892;5.738;2022-12-18T01:24:38;51.97;;;16.33;;
61391;SDS011;47261;52.892;5.738;2022-12-18T01:27:04;51.92;;;14.13;;
61391;SDS011;47261;52.892;5.738;2022-12-18T01:29:30;53.40;;;16.83;;
61391;SDS011;47261;52.892;5.738;2022-12-18T01:31:56;34.78;;;9.70;;
61391;SDS011;47261;52.892;5.738;2022-12-18T01:34:22;45.85;;;14.10;;
61391;SDS011;47261;52.892;5.738;2022-12-18T01:36:48;48.65;;;12.68;;
61391;SDS011;47261;52.892;5.738;2022-12-18T01:39:17;33.03;;;11.25;;
61391;SDS011;47261;52.892;5.738;2022-12-18T01:41:43;51.03;;;13.90;;
61391;SDS011;47261;52.892;5.738;2022-12-18T01:52:44;46.97;;;12.38;;
61391;SDS011;47261;52.892;5.738;2022-12-18T01:55:38;47.53;;;13.30;;
61391;SDS011;47261;52.892;5.738;2022-12-18T01:58:35;48.72;;;12.18;;
61391;SDS011;47261;52.892;5.738;2022-12-18T02:01:15;55.85;;;17.00;;
61391;SDS011;47261;52.892;5.738;2022-12-18T02:03:41;47.23;;;14.90;;
61391;SDS011;47261;52.892;5.738;2022-12-18T02:06:13;57.03;;;14.38;;
61391;SDS011;47261;52.892;5.738;2022-12-18T02:11:36;55.15;;;13.77;;
61391;SDS011;47261;52.892;5.738;2022-12-18T02:14:24;70.07;;;17.30;;
61391;SDS011;47261;52.892;5.738;2022-12-18T02:17:04;48.03;;;15.50;;
61391;SDS011;47261;52.892;5.738;2022-12-18T02:22:20;50.38;;;13.60;;
61391;SDS011;47261;52.892;5.738;2022-12-18T02:25:00;67.65;;;13.85;;
61391;SDS011;47261;52.892;5.738;2022-12-18T02:27:49;70.78;;;17.65;;
61391;SDS011;47261;52.892;5.738;2022-12-18T02:30:16;41.83;;;13.07;;
61391;SDS011;47261;52.892;5.738;2022-12-18T02:32:47;65.45;;;14.23;;
61391;SDS011;47261;52.892;5.738;2022-12-18T02:35:17;50.75;;;13.75;;
61391;SDS011;47261;52.892;5.738;2022-12-18T02:37:49;57.03;;;13.80;;
61391;SDS011;47261;52.892;5.738;2022-12-18T02:40:19;29.92;;;9.90;;
61391;SDS011;47261;52.892;5.738;2022-12-18T02:42:47;32.07;;;8.83;;
61391;SDS011;47261;52.892;5.738;2022-12-18T02:45:13;35.60;;;10.82;;
61391;SDS011;47261;52.892;5.738;2022-12-18T02:47:39;42.03;;;10.53;;
61391;SDS011;47261;52.892;5.738;2022-12-18T02:55:34;26.67;;;7.63;;
61391;SDS011;47261;52.892;5.738;2022-12-18T03:01:15;57.47;;;15.15;;
61391;SDS011;47261;52.892;5.738;2022-12-18T03:04:17;24.85;;;9.10;;
61391;SDS011;47261;52.892;5.738;2022-12-18T03:07:03;24.90;;;8.45;;
61391;SDS011;47261;52.892;5.738;2022-12-18T03:09:34;40.00;;;12.32;;
61391;SDS011;47261;52.892;5.738;2022-12-18T03:12:05;24.10;;;9.60;;
61391;SDS011;47261;52.892;5.738;2022-12-18T03:14:53;31.38;;;10.65;;
61391;SDS011;47261;52.892;5.738;2022-12-18T03:17:28;35.80;;;9.32;;
61391;SDS011;47261;52.892;5.738;2022-12-18T03:19:58;34.25;;;10.35;;
61391;SDS011;47261;52.892;5.738;2022-12-18T03:22:30;28.13;;;9.73;;
61391;SDS011;47261;52.892;5.738;2022-12-18T03:24:58;48.30;;;13.03;;
61391;SDS011;47261;52.892;5.738;2022-12-18T03:27:27;52.60;;;13.60;;
61391;SDS011;47261;52.892;5.738;2022-12-18T03:29:59;45.75;;;12.68;;
61391;SDS011;47261;52.892;5.738;2022-12-18T03:32:33;41.83;;;13.10;;
61391;SDS011;47261;52.892;5.738;2022-12-18T03:35:05;35.05;;;9.43;;
61391;SDS011;47261;52.892;5.738;2022-12-18T03:37:33;34.40;;;11.07;;
61391;SDS011;47261;52.892;5.738;2022-12-18T03:39:59;64.13;;;16.85;;
61391;SDS011;47261;52.892;5.738;2022-12-18T03:42:45;36.70;;;11.70;;
61391;SDS011;47261;52.892;5.738;2022-12-18T03:45:20;31.23;;;9.30;;
61391;SDS011;47261;52.892;5.738;2022-12-18T03:48:09;40.60;;;12.15;;
61391;SDS011;47261;52.892;5.738;2022-12-18T03:50:49;22.83;;;7.55;;
61391;SDS011;47261;52.892;5.738;2022-12-18T03:55:56;27.25;;;9.60;;
61391;SDS011;47261;52.892;5.738;2022-12-18T03:58:24;41.30;;;11.77;;
61391;SDS011;47261;52.892;5.738;2022-12-18T04:00:52;42.92;;;10.80;;
61391;SDS011;47261;52.892;5.738;2022-12-18T04:03:20;41.30;;;12.63;;
61391;SDS011;47261;52.892;5.738;2022-12-18T04:05:48;52.67;;;14.68;;
61391;SDS011;47261;52.892;5.738;2022-12-18T04:08:19;43.55;;;13.55;;
61391;SDS011;47261;52.892;5.738;2022-12-18T04:10:46;31.53;;;11.40;;
61391;SDS011;47261;52.892;5.738;2022-12-18T04:13:12;49.30;;;13.43;;
61391;SDS011;47261;52.892;5.738;2022-12-18T04:15:46;38.55;;;12.30;;
61391;SDS011;47261;52.892;5.738;2022-12-18T04:18:11;54.70;;;15.53;;
61391;SDS011;47261;52.892;5.738;2022-12-18T04:20:37;46.00;;;11.50;;
61391;SDS011;47261;52.892;5.738;2022-12-18T04:23:02;41.78;;;11.93;;
61391;SDS011;47261;52.892;5.738;2022-12-18T04:25:28;53.77;;;12.93;;
61391;SDS011;47261;52.892;5.738;2022-12-18T04:27:54;30.87;;;8.23;;
61391;SDS011;47261;52.892;5.738;2022-12-18T04:30:19;39.20;;;12.55;;
61391;SDS011;47261;52.892;5.738;2022-12-18T04:32:45;27.77;;;9.53;;
61391;SDS011;47261;52.892;5.738;2022-12-18T04:35:10;31.98;;;9.10;;
61391;SDS011;47261;52.892;5.738;2022-12-18T04:37:36;45.20;;;13.93;;
61391;SDS011;47261;52.892;5.738;2022-12-18T04:40:02;69.15;;;16.52;;
61391;SDS011;47261;52.892;5.738;2022-12-18T04:42:28;46.08;;;12.13;;
61391;SDS011;47261;52.892;5.738;2022-12-18T04:44:54;46.37;;;14.13;;
61391;SDS011;47261;52.892;5.738;2022-12-18T04:47:20;44.70;;;13.93;;
61391;SDS011;47261;52.892;5.738;2022-12-18T04:49:45;44.75;;;12.43;;
61391;SDS011;47261;52.892;5.738;2022-12-18T04:52:11;45.10;;;11.30;;
61391;SDS011;47261;52.892;5.738;2022-12-18T04:54:37;40.90;;;13.57;;
61391;SDS011;47261;52.892;5.738;2022-12-18T04:57:02;44.17;;;12.70;;
61391;SDS011;47261;52.892;5.738;2022-12-18T04:59:28;57.87;;;13.87;;
61391;SDS011;47261;52.892;5.738;2022-12-18T05:01:54;41.10;;;13.48;;
61391;SDS011;47261;52.892;5.738;2022-12-18T05:04:19;52.93;;;13.80;;
61391;SDS011;47261;52.892;5.738;2022-12-18T05:06:45;29.10;;;9.80;;
61391;SDS011;47261;52.892;5.738;2022-12-18T05:09:10;43.93;;;11.90;;
61391;SDS011;47261;52.892;5.738;2022-12-18T05:11:36;48.17;;;13.52;;
61391;SDS011;47261;52.892;5.738;2022-12-18T05:14:02;45.05;;;13.52;;
61391;SDS011;47261;52.892;5.738;2022-12-18T05:16:27;50.07;;;16.47;;
61391;SDS011;47261;52.892;5.738;2022-12-18T05:18:53;56.95;;;15.63;;
61391;SDS011;47261;52.892;5.738;2022-12-18T05:21:18;50.63;;;13.37;;
61391;SDS011;47261;52.892;5.738;2022-12-18T05:23:44;44.10;;;12.73;;
61391;SDS011;47261;52.892;5.738;2022-12-18T05:26:10;58.08;;;12.77;;
61391;SDS011;47261;52.892;5.738;2022-12-18T05:28:40;50.58;;;14.32;;
61391;SDS011;47261;52.892;5.738;2022-12-18T05:31:06;54.33;;;15.90;;
61391;SDS011;47261;52.892;5.738;2022-12-18T05:33:33;48.37;;;14.17;;
61391;SDS011;47261;52.892;5.738;2022-12-18T05:36:04;50.70;;;14.98;;
61391;SDS011;47261;52.892;5.738;2022-12-18T05:38:31;28.23;;;9.43;;
61391;SDS011;47261;52.892;5.738;2022-12-18T05:40:58;50.88;;;13.43;;
61391;SDS011;47261;52.892;5.738;2022-12-18T05:43:24;49.47;;;13.33;;
61391;SDS011;47261;52.892;5.738;2022-12-18T05:45:51;49.15;;;14.65;;
61391;SDS011;47261;52.892;5.738;2022-12-18T05:48:18;31.08;;;10.27;;
61391;SDS011;47261;52.892;5.738;2022-12-18T05:50:44;33.95;;;9.95;;
61391;SDS011;47261;52.892;5.738;2022-12-18T05:53:12;40.80;;;12.37;;
61391;SDS011;47261;52.892;5.738;2022-12-18T05:55:39;45.17;;;11.75;;
61391;SDS011;47261;52.892;5.738;2022-12-18T05:58:06;45.05;;;14.25;;
61391;SDS011;47261;52.892;5.738;2022-12-18T06:00:33;43.58;;;14.63;;
61391;SDS011;47261;52.892;5.738;2022-12-18T06:03:00;41.88;;;12.57;;
61391;SDS011;47261;52.892;5.738;2022-12-18T06:05:26;24.50;;;9.97;;
61391;SDS011;47261;52.892;5.738;2022-12-18T06:07:51;43.42;;;12.55;;
61391;SDS011;47261;52.892;5.738;2022-12-18T06:10:17;41.07;;;12.13;;
61391;SDS011;47261;52.892;5.738;2022-12-18T06:12:43;45.95;;;13.15;;
61391;SDS011;47261;52.892;5.738;2022-12-18T06:15:09;44.83;;;13.37;;
61391;SDS011;47261;52.892;5.738;2022-12-18T06:17:35;40.10;;;11.15;;
61391;SDS011;47261;52.892;5.738;2022-12-18T06:20:00;50.55;;;12.73;;
61391;SDS011;47261;52.892;5.738;2022-12-18T06:22:26;42.63;;;12.53;;
61391;SDS011;47261;52.892;5.738;2022-12-18T06:24:53;38.35;;;12.40;;
61391;SDS011;47261;52.892;5.738;2022-12-18T06:27:19;47.77;;;13.93;;
61391;SDS011;47261;52.892;5.738;2022-12-18T06:29:45;36.17;;;10.50;;
61391;SDS011;47261;52.892;5.738;2022-12-18T06:32:11;33.35;;;10.55;;
61391;SDS011;47261;52.892;5.738;2022-12-18T06:34:36;39.10;;;11.97;;
61391;SDS011;47261;52.892;5.738;2022-12-18T06:37:02;29.27;;;7.82;;
61391;SDS011;47261;52.892;5.738;2022-12-18T06:39:28;18.27;;;6.47;;
61391;SDS011;47261;52.892;5.738;2022-12-18T06:41:54;41.42;;;11.13;;
61391;SDS011;47261;52.892;5.738;2022-12-18T06:44:20;24.70;;;9.32;;
61391;SDS011;47261;52.892;5.738;2022-12-18T06:46:46;35.17;;;9.90;;
61391;SDS011;47261;52.892;5.738;2022-12-18T06:49:11;40.00;;;12.57;;
61391;SDS011;47261;52.892;5.738;2022-12-18T06:51:37;29.93;;;10.37;;
61391;SDS011;47261;52.892;5.738;2022-12-18T06:54:03;35.13;;;12.70;;
61391;SDS011;47261;52.892;5.738;2022-12-18T06:56:29;23.40;;;6.97;;
61391;SDS011;47261;52.892;5.738;2022-12-18T06:58:55;39.30;;;11.88;;
61391;SDS011;47261;52.892;5.738;2022-12-18T07:01:21;35.63;;;10.50;;
61391;SDS011;47261;52.892;5.738;2022-12-18T07:03:46;26.77;;;8.70;;
61391;SDS011;47261;52.892;5.738;2022-12-18T07:06:16;32.03;;;9.75;;
61391;SDS011;47261;52.892;5.738;2022-12-18T07:08:44;34.15;;;8.23;;
61391;SDS011;47261;52.892;5.738;2022-12-18T07:11:10;37.90;;;11.47;;
61391;SDS011;47261;52.892;5.738;2022-12-18T07:13:36;42.13;;;10.10;;
61391;SDS011;47261;52.892;5.738;2022-12-18T07:16:05;42.03;;;12.97;;
61391;SDS011;47261;52.892;5.738;2022-12-18T07:18:32;27.38;;;8.75;;
61391;SDS011;47261;52.892;5.738;2022-12-18T07:21:01;33.28;;;10.05;;
61391;SDS011;47261;52.892;5.738;2022-12-18T07:23:28;29.27;;;8.93;;
61391;SDS011;47261;52.892;5.738;2022-12-18T07:25:54;20.08;;;6.47;;
61391;SDS011;47261;52.892;5.738;2022-12-18T07:28:20;22.83;;;7.43;;
61391;SDS011;47261;52.892;5.738;2022-12-18T07:30:45;25.87;;;8.83;;
61391;SDS011;47261;52.892;5.738;2022-12-18T07:33:11;25.55;;;9.73;;
61391;SDS011;47261;52.892;5.738;2022-12-18T07:35:36;24.77;;;9.83;;
61391;SDS011;47261;52.892;5.738;2022-12-18T07:38:02;25.55;;;9.70;;
61391;SDS011;47261;52.892;5.738;2022-12-18T07:40:28;31.60;;;11.00;;
61391;SDS011;47261;52.892;5.738;2022-12-18T07:42:53;16.10;;;6.20;;
61391;SDS011;47261;52.892;5.738;2022-12-18T07:45:19;26.13;;;8.85;;
61391;SDS011;47261;52.892;5.738;2022-12-18T07:47:44;15.33;;;5.67;;
61391;SDS011;47261;52.892;5.738;2022-12-18T07:50:10;35.47;;;7.85;;
61391;SDS011;47261;52.892;5.738;2022-12-18T07:52:36;21.33;;;8.52;;
61391;SDS011;47261;52.892;5.738;2022-12-18T07:55:02;24.97;;;9.57;;
61391;SDS011;47261;52.892;5.738;2022-12-18T07:57:27;27.13;;;8.85;;
61391;SDS011;47261;52.892;5.738;2022-12-18T07:59:53;16.38;;;5.78;;
61391;SDS011;47261;52.892;5.738;2022-12-18T08:02:19;27.47;;;7.33;;
61391;SDS011;47261;52.892;5.738;2022-12-18T08:04:44;14.37;;;5.20;;
61391;SDS011;47261;52.892;5.738;2022-12-18T08:07:10;20.17;;;6.95;;
61391;SDS011;47261;52.892;5.738;2022-12-18T08:09:35;10.87;;;4.73;;
61391;SDS011;47261;52.892;5.738;2022-12-18T08:12:01;15.95;;;7.15;;
61391;SDS011;47261;52.892;5.738;2022-12-18T08:14:27;24.60;;;6.80;;
61391;SDS011;47261;52.892;5.738;2022-12-18T08:16:52;24.13;;;6.40;;
61391;SDS011;47261;52.892;5.738;2022-12-18T08:19:18;23.33;;;8.32;;
61391;SDS011;47261;52.892;5.738;2022-12-18T08:21:44;22.93;;;7.53;;
61391;SDS011;47261;52.892;5.738;2022-12-18T08:24:09;26.08;;;8.55;;
61391;SDS011;47261;52.892;5.738;2022-12-18T08:26:35;23.60;;;7.77;;
61391;SDS011;47261;52.892;5.738;2022-12-18T08:29:01;19.33;;;8.02;;
61391;SDS011;47261;52.892;5.738;2022-12-18T08:31:28;22.20;;;7.65;;
61391;SDS011;47261;52.892;5.738;2022-12-18T08:33:54;18.53;;;8.00;;
61391;SDS011;47261;52.892;5.738;2022-12-18T08:36:20;32.03;;;9.38;;
61391;SDS011;47261;52.892;5.738;2022-12-18T08:38:47;20.17;;;7.50;;
61391;SDS011;47261;52.892;5.738;2022-12-18T08:41:13;18.40;;;6.50;;
61391;SDS011;47261;52.892;5.738;2022-12-18T08:43:41;18.13;;;6.37;;
61391;SDS011;47261;52.892;5.738;2022-12-18T08:46:26;20.90;;;6.40;;
61391;SDS011;47261;52.892;5.738;2022-12-18T08:48:57;13.77;;;5.38;;
61391;SDS011;47261;52.892;5.738;2022-12-18T08:51:23;27.88;;;9.65;;
61391;SDS011;47261;52.892;5.738;2022-12-18T08:53:48;25.50;;;8.53;;
61391;SDS011;47261;52.892;5.738;2022-12-18T08:56:14;20.33;;;6.75;;
61391;SDS011;47261;52.892;5.738;2022-12-18T08:58:40;15.20;;;6.07;;
61391;SDS011;47261;52.892;5.738;2022-12-18T09:01:07;17.70;;;6.05;;
61391;SDS011;47261;52.892;5.738;2022-12-18T09:03:34;11.32;;;5.07;;
61391;SDS011;47261;52.892;5.738;2022-12-18T09:06:00;18.93;;;6.33;;
61391;SDS011;47261;52.892;5.738;2022-12-18T09:08:26;21.35;;;6.03;;
61391;SDS011;47261;52.892;5.738;2022-12-18T09:10:53;15.13;;;5.50;;
61391;SDS011;47261;52.892;5.738;2022-12-18T09:13:18;20.17;;;7.20;;
61391;SDS011;47261;52.892;5.738;2022-12-18T09:15:45;18.53;;;6.70;;
61391;SDS011;47261;52.892;5.738;2022-12-18T09:18:13;20.70;;;7.97;;
61391;SDS011;47261;52.892;5.738;2022-12-18T09:20:39;24.58;;;6.65;;
61391;SDS011;47261;52.892;5.738;2022-12-18T09:23:05;18.92;;;7.30;;
61391;SDS011;47261;52.892;5.738;2022-12-18T09:25:32;15.00;;;6.03;;
61391;SDS011;47261;52.892;5.738;2022-12-18T09:28:00;19.50;;;7.53;;
61391;SDS011;47261;52.892;5.738;2022-12-18T09:30:46;10.48;;;4.63;;
61391;SDS011;47261;52.892;5.738;2022-12-18T09:33:13;17.67;;;6.45;;
61391;SDS011;47261;52.892;5.738;2022-12-18T09:35:40;17.83;;;6.40;;
61391;SDS011;47261;52.892;5.738;2022-12-18T09:38:07;21.23;;;8.27;;
61391;SDS011;47261;52.892;5.738;2022-12-18T09:40:44;15.13;;;6.65;;
61391;SDS011;47261;52.892;5.738;2022-12-18T09:43:19;16.85;;;6.25;;
61391;SDS011;47261;52.892;5.738;2022-12-18T09:45:51;11.75;;;4.10;;
61391;SDS011;47261;52.892;5.738;2022-12-18T09:48:28;17.30;;;6.72;;
61391;SDS011;47261;52.892;5.738;2022-12-18T09:51:02;14.27;;;5.82;;
61391;SDS011;47261;52.892;5.738;2022-12-18T09:53:35;17.17;;;5.47;;
61391;SDS011;47261;52.892;5.738;2022-12-18T09:56:04;21.63;;;6.68;;
61391;SDS011;47261;52.892;5.738;2022-12-18T09:58:39;15.10;;;5.53;;
61391;SDS011;47261;52.892;5.738;2022-12-18T10:01:11;14.93;;;5.00;;
61391;SDS011;47261;52.892;5.738;2022-12-18T10:03:39;9.82;;;4.03;;
61391;SDS011;47261;52.892;5.738;2022-12-18T10:14:48;15.93;;;6.00;;
61391;SDS011;47261;52.892;5.738;2022-12-18T10:19:53;11.03;;;4.00;;
61391;SDS011;47261;52.892;5.738;2022-12-18T10:25:17;15.57;;;6.00;;
61391;SDS011;47261;52.892;5.738;2022-12-18T10:27:51;11.98;;;4.60;;
61391;SDS011;47261;52.892;5.738;2022-12-18T10:30:21;15.02;;;5.82;;
61391;SDS011;47261;52.892;5.738;2022-12-18T10:32:48;11.55;;;4.22;;
61391;SDS011;47261;52.892;5.738;2022-12-18T10:35:16;11.43;;;4.40;;
61391;SDS011;47261;52.892;5.738;2022-12-18T10:43:23;14.10;;;5.40;;
61391;SDS011;47261;52.892;5.738;2022-12-18T10:48:26;11.43;;;3.90;;
61391;SDS011;47261;52.892;5.738;2022-12-18T10:50:53;13.25;;;4.28;;
61391;SDS011;47261;52.892;5.738;2022-12-18T10:53:23;10.20;;;3.67;;
61391;SDS011;47261;52.892;5.738;2022-12-18T10:55:52;13.43;;;4.45;;
61391;SDS011;47261;52.892;5.738;2022-12-18T11:01:13;10.48;;;4.38;;
61391;SDS011;47261;52.892;5.738;2022-12-18T11:03:45;9.73;;;3.95;;
61391;SDS011;47261;52.892;5.738;2022-12-18T11:06:23;12.00;;;4.00;;
61391;SDS011;47261;52.892;5.738;2022-12-18T11:09:00;9.73;;;3.65;;
61391;SDS011;47261;52.892;5.738;2022-12-18T11:11:28;8.70;;;3.40;;
61391;SDS011;47261;52.892;5.738;2022-12-18T11:16:34;12.57;;;5.25;;
61391;SDS011;47261;52.892;5.738;2022-12-18T11:19:28;12.20;;;4.53;;
61391;SDS011;47261;52.892;5.738;2022-12-18T11:22:17;12.50;;;4.07;;
61391;SDS011;47261;52.892;5.738;2022-12-18T11:24:51;11.18;;;4.43;;
61391;SDS011;47261;52.892;5.738;2022-12-18T11:27:36;10.10;;;2.95;;
61391;SDS011;47261;52.892;5.738;2022-12-18T11:30:13;10.68;;;3.90;;
61391;SDS011;47261;52.892;5.738;2022-12-18T11:32:46;8.60;;;3.42;;
61391;SDS011;47261;52.892;5.738;2022-12-18T11:35:33;7.32;;;2.83;;
61391;SDS011;47261;52.892;5.738;2022-12-18T11:38:17;9.95;;;3.33;;
61391;SDS011;47261;52.892;5.738;2022-12-18T11:40:50;6.72;;;2.80;;
61391;SDS011;47261;52.892;5.738;2022-12-18T11:43:27;15.55;;;5.20;;
61391;SDS011;47261;52.892;5.738;2022-12-18T11:46:02;7.63;;;3.42;;
61391;SDS011;47261;52.892;5.738;2022-12-18T11:48:47;13.52;;;3.83;;
61391;SDS011;47261;52.892;5.738;2022-12-18T11:51:33;8.50;;;3.03;;
61391;SDS011;47261;52.892;5.738;2022-12-18T11:54:13;9.18;;;3.17;;
61391;SDS011;47261;52.892;5.738;2022-12-18T11:56:46;10.40;;;3.22;;
61391;SDS011;47261;52.892;5.738;2022-12-18T11:59:23;8.00;;;3.10;;
61391;SDS011;47261;52.892;5.738;2022-12-18T12:10:41;9.02;;;3.20;;
61391;SDS011;47261;52.892;5.738;2022-12-18T12:15:53;14.07;;;3.70;;
61391;SDS011;47261;52.892;5.738;2022-12-18T12:24:15;9.88;;;3.53;;
61391;SDS011;47261;52.892;5.738;2022-12-18T12:27:09;8.77;;;2.63;;
61391;SDS011;47261;52.892;5.738;2022-12-18T12:35:56;10.40;;;3.47;;
61391;SDS011;47261;52.892;5.738;2022-12-18T12:38:34;10.43;;;2.92;;
61391;SDS011;47261;52.892;5.738;2022-12-18T12:41:16;8.25;;;2.83;;
61391;SDS011;47261;52.892;5.738;2022-12-18T12:44:04;10.30;;;3.05;;
61391;SDS011;47261;52.892;5.738;2022-12-18T12:46:34;6.55;;;2.50;;
61391;SDS011;47261;52.892;5.738;2022-12-18T12:49:07;10.90;;;3.08;;
61391;SDS011;47261;52.892;5.738;2022-12-18T12:51:43;13.23;;;4.10;;
61391;SDS011;47261;52.892;5.738;2022-12-18T12:54:21;7.22;;;2.67;;
61391;SDS011;47261;52.892;5.738;2022-12-18T13:04:51;8.82;;;3.78;;
61391;SDS011;47261;52.892;5.738;2022-12-18T13:07:39;10.65;;;4.18;;
61391;SDS011;47261;52.892;5.738;2022-12-18T13:12:50;9.85;;;3.33;;
61391;SDS011;47261;52.892;5.738;2022-12-18T13:15:24;8.10;;;2.53;;
61391;SDS011;47261;52.892;5.738;2022-12-18T13:18:05;11.25;;;3.72;;
61391;SDS011;47261;52.892;5.738;2022-12-18T13:23:19;11.73;;;3.97;;
61391;SDS011;47261;52.892;5.738;2022-12-18T13:25:56;10.45;;;3.67;;
61391;SDS011;47261;52.892;5.738;2022-12-18T13:31:11;6.38;;;2.20;;
61391;SDS011;47261;52.892;5.738;2022-12-18T13:34:17;8.38;;;2.55;;
61391;SDS011;47261;52.892;5.738;2022-12-18T13:36:51;8.30;;;2.33;;
61391;SDS011;47261;52.892;5.738;2022-12-18T13:41:52;8.80;;;3.70;;
61391;SDS011;47261;52.892;5.738;2022-12-18T13:44:58;8.55;;;3.53;;
61391;SDS011;47261;52.892;5.738;2022-12-18T13:47:33;8.93;;;2.30;;
61391;SDS011;47261;52.892;5.738;2022-12-18T13:50:20;6.93;;;2.58;;
61391;SDS011;47261;52.892;5.738;2022-12-18T13:52:50;10.85;;;3.95;;
61391;SDS011;47261;52.892;5.738;2022-12-18T13:55:18;8.53;;;3.07;;
61391;SDS011;47261;52.892;5.738;2022-12-18T13:57:45;7.97;;;3.08;;
61391;SDS011;47261;52.892;5.738;2022-12-18T14:02:54;10.02;;;3.03;;
61391;SDS011;47261;52.892;5.738;2022-12-18T14:05:24;10.25;;;3.67;;
61391;SDS011;47261;52.892;5.738;2022-12-18T14:07:52;8.53;;;2.67;;
61391;SDS011;47261;52.892;5.738;2022-12-18T14:10:19;11.82;;;3.28;;
61391;SDS011;47261;52.892;5.738;2022-12-18T14:12:49;8.60;;;2.85;;
61391;SDS011;47261;52.892;5.738;2022-12-18T14:17:51;5.97;;;2.05;;
61391;SDS011;47261;52.892;5.738;2022-12-18T14:20:24;8.10;;;2.27;;
61391;SDS011;47261;52.892;5.738;2022-12-18T14:22:51;6.45;;;2.38;;
61391;SDS011;47261;52.892;5.738;2022-12-18T14:25:26;9.85;;;2.22;;
61391;SDS011;47261;52.892;5.738;2022-12-18T14:28:02;9.33;;;2.50;;
61391;SDS011;47261;52.892;5.738;2022-12-18T14:30:39;5.75;;;1.73;;
61391;SDS011;47261;52.892;5.738;2022-12-18T14:33:13;7.28;;;2.47;;
61391;SDS011;47261;52.892;5.738;2022-12-18T14:35:41;6.22;;;2.08;;
61391;SDS011;47261;52.892;5.738;2022-12-18T14:40:52;9.17;;;3.10;;
61391;SDS011;47261;52.892;5.738;2022-12-18T14:43:19;6.95;;;3.03;;
61391;SDS011;47261;52.892;5.738;2022-12-18T14:45:45;7.65;;;2.58;;
61391;SDS011;47261;52.892;5.738;2022-12-18T14:50:39;5.03;;;1.70;;
61391;SDS011;47261;52.892;5.738;2022-12-18T14:53:05;9.68;;;3.10;;
61391;SDS011;47261;52.892;5.738;2022-12-18T14:55:45;7.95;;;2.88;;
61391;SDS011;47261;52.892;5.738;2022-12-18T14:58:13;7.82;;;2.05;;
61391;SDS011;47261;52.892;5.738;2022-12-18T15:00:42;12.40;;;3.47;;
61391;SDS011;47261;52.892;5.738;2022-12-18T15:03:08;9.52;;;2.83;;
61391;SDS011;47261;52.892;5.738;2022-12-18T15:05:35;6.68;;;2.20;;
61391;SDS011;47261;52.892;5.738;2022-12-18T15:08:01;10.27;;;3.22;;
61391;SDS011;47261;52.892;5.738;2022-12-18T15:20:38;12.93;;;4.10;;
61391;SDS011;47261;52.892;5.738;2022-12-18T15:23:17;8.38;;;3.08;;
61391;SDS011;47261;52.892;5.738;2022-12-18T15:25:49;9.52;;;2.75;;
61391;SDS011;47261;52.892;5.738;2022-12-18T15:28:29;8.65;;;2.60;;
61391;SDS011;47261;52.892;5.738;2022-12-18T15:33:38;10.38;;;3.88;;
61391;SDS011;47261;52.892;5.738;2022-12-18T15:36:10;8.13;;;2.85;;
61391;SDS011;47261;52.892;5.738;2022-12-18T15:38:37;7.57;;;2.67;;
61391;SDS011;47261;52.892;5.738;2022-12-18T15:41:02;7.90;;;2.33;;
61391;SDS011;47261;52.892;5.738;2022-12-18T15:43:37;9.10;;;2.90;;
61391;SDS011;47261;52.892;5.738;2022-12-18T15:46:03;8.65;;;3.20;;
61391;SDS011;47261;52.892;5.738;2022-12-18T15:48:34;7.25;;;2.67;;
61391;SDS011;47261;52.892;5.738;2022-12-18T15:51:04;8.45;;;2.83;;
61391;SDS011;47261;52.892;5.738;2022-12-18T15:53:34;10.85;;;2.60;;
61391;SDS011;47261;52.892;5.738;2022-12-18T15:55:59;7.97;;;2.83;;
61391;SDS011;47261;52.892;5.738;2022-12-18T15:58:43;8.25;;;2.85;;
61391;SDS011;47261;52.892;5.738;2022-12-18T16:01:09;7.53;;;2.73;;
61391;SDS011;47261;52.892;5.738;2022-12-18T16:03:36;8.40;;;3.20;;
61391;SDS011;47261;52.892;5.738;2022-12-18T16:06:02;8.98;;;2.83;;
61391;SDS011;47261;52.892;5.738;2022-12-18T16:08:28;7.03;;;2.47;;
61391;SDS011;47261;52.892;5.738;2022-12-18T16:10:55;7.63;;;2.40;;
61391;SDS011;47261;52.892;5.738;2022-12-18T16:13:21;11.07;;;3.25;;
61391;SDS011;47261;52.892;5.738;2022-12-18T16:15:47;6.97;;;2.40;;
61391;SDS011;47261;52.892;5.738;2022-12-18T16:18:14;9.45;;;2.45;;
61391;SDS011;47261;52.892;5.738;2022-12-18T16:20:39;7.18;;;2.60;;
61391;SDS011;47261;52.892;5.738;2022-12-18T16:23:05;7.00;;;2.10;;
61391;SDS011;47261;52.892;5.738;2022-12-18T16:25:31;7.43;;;2.63;;
61391;SDS011;47261;52.892;5.738;2022-12-18T16:27:57;6.90;;;2.60;;
61391;SDS011;47261;52.892;5.738;2022-12-18T16:30:26;10.37;;;3.13;;
61391;SDS011;47261;52.892;5.738;2022-12-18T16:32:55;6.90;;;2.80;;
61391;SDS011;47261;52.892;5.738;2022-12-18T16:35:22;10.13;;;3.92;;
61391;SDS011;47261;52.892;5.738;2022-12-18T16:37:48;6.00;;;2.55;;
61391;SDS011;47261;52.892;5.738;2022-12-18T16:40:14;11.30;;;3.27;;
61391;SDS011;47261;52.892;5.738;2022-12-18T16:42:41;8.60;;;3.53;;
61391;SDS011;47261;52.892;5.738;2022-12-18T16:45:09;4.88;;;1.65;;
61391;SDS011;47261;52.892;5.738;2022-12-18T16:47:40;6.75;;;2.13;;
61391;SDS011;47261;52.892;5.738;2022-12-18T16:50:05;8.03;;;2.70;;